CheckWX is a tool to help pilots better visualize weather data.  It is not intended as a substitute for an official pre-flight weather briefing.

14:19:56 UTC

KELM TAF
Elmira / Corning Regional Airport
Elmira/Corning, New York, USA
KELM 131123Z 1312/1412 20005KT P6SM BKN029 WS020/20040KT FM131900 17006KT P6SM OVC027 FM132200 15006KT P6SM OVC018 FM140000 15006KT P6SM OVC008 FM140600 12007KT 4SM RA BR OVC006

Dec-13@
12:00 UTC

Dec-13 @ 12:00 UTC

Dec-13@
19:00 UTC

Dec-13 @ 19:00 UTC

KELM 131123Z 1312/1412 20005KT P6SM BKN029 WS020/20040KT
Wind
  • 200° at 5 KTS
Cloud Levels
  • Broken at 2,900' AGL

Dec-13@
19:00 UTC

Dec-13 @ 19:00 UTC

Dec-13@
22:00 UTC

Dec-13 @ 22:00 UTC

FM131900 17006KT P6SM OVC027

From

From Standard forecast or significant change

Wind
  • 170° at 6 KTS
Cloud Levels
  • Overcast at 2,700' AGL

Dec-13@
22:00 UTC

Dec-13 @ 22:00 UTC

Dec-14@
00:00 UTC

Dec-14 @ 00:00 UTC

FM132200 15006KT P6SM OVC018

From

From Standard forecast or significant change

Wind
  • 150° at 6 KTS
Cloud Levels
  • Overcast at 1,800' AGL

Dec-14@
00:00 UTC

Dec-14 @ 00:00 UTC

Dec-14@
06:00 UTC

Dec-14 @ 06:00 UTC

FM140000 15006KT P6SM OVC008

From

From Standard forecast or significant change

Wind
  • 150° at 6 KTS
Cloud Levels
  • Overcast at 800' AGL

Dec-14@
06:00 UTC

Dec-14 @ 06:00 UTC

Dec-14@
12:00 UTC

Dec-14 @ 12:00 UTC

FM140600 12007KT 4SM RA BR OVC006

From

From Standard forecast or significant change

Wind
  • 120° at 7 KTS
Conditions
Rain, Mist
Cloud Levels
  • Overcast at 600' AGL